sensor_id;sensor_type;location;lat;lon;timestamp;P1;durP1;ratioP1;P2;durP2;ratioP2
53598;SDS011;39485;45.702;11.364;2023-08-08T00:01:22;0.30;;;0.30;;
53598;SDS011;39485;45.702;11.364;2023-08-08T00:03:48;0.05;;;0.05;;
53598;SDS011;39485;45.702;11.364;2023-08-08T00:06:14;0.10;;;0.10;;
53598;SDS011;39485;45.702;11.364;2023-08-08T00:08:39;0.10;;;0.10;;
53598;SDS011;39485;45.702;11.364;2023-08-08T00:11:06;0.20;;;0.20;;
53598;SDS011;39485;45.702;11.364;2023-08-08T00:13:32;0.10;;;0.10;;
53598;SDS011;39485;45.702;11.364;2023-08-08T00:15:57;0.00;;;0.00;;
53598;SDS011;39485;45.702;11.364;2023-08-08T00:18:23;0.10;;;0.10;;
53598;SDS011;39485;45.702;11.364;2023-08-08T00:20:49;0.10;;;0.10;;
53598;SDS011;39485;45.702;11.364;2023-08-08T00:23:15;0.40;;;0.40;;
53598;SDS011;39485;45.702;11.364;2023-08-08T00:25:40;0.10;;;0.10;;
53598;SDS011;39485;45.702;11.364;2023-08-08T00:28:06;0.10;;;0.10;;
53598;SDS011;39485;45.702;11.364;2023-08-08T00:30:32;0.10;;;0.10;;
53598;SDS011;39485;45.702;11.364;2023-08-08T00:32:57;0.10;;;0.10;;
53598;SDS011;39485;45.702;11.364;2023-08-08T00:35:24;0.17;;;0.17;;
53598;SDS011;39485;45.702;11.364;2023-08-08T00:37:50;0.10;;;0.10;;
53598;SDS011;39485;45.702;11.364;2023-08-08T00:40:15;0.20;;;0.20;;
53598;SDS011;39485;45.702;11.364;2023-08-08T00:42:41;0.10;;;0.10;;
53598;SDS011;39485;45.702;11.364;2023-08-08T00:45:07;0.20;;;0.20;;
53598;SDS011;39485;45.702;11.364;2023-08-08T00:47:33;0.10;;;0.10;;
53598;SDS011;39485;45.702;11.364;2023-08-08T00:50:00;0.00;;;0.00;;
53598;SDS011;39485;45.702;11.364;2023-08-08T00:52:27;0.10;;;0.10;;
53598;SDS011;39485;45.702;11.364;2023-08-08T00:54:53;0.10;;;0.10;;
53598;SDS011;39485;45.702;11.364;2023-08-08T00:57:19;0.10;;;0.10;;
53598;SDS011;39485;45.702;11.364;2023-08-08T00:59:45;0.10;;;0.10;;
53598;SDS011;39485;45.702;11.364;2023-08-08T01:02:11;0.10;;;0.10;;
53598;SDS011;39485;45.702;11.364;2023-08-08T01:04:37;0.13;;;0.13;;
53598;SDS011;39485;45.702;11.364;2023-08-08T01:07:08;0.17;;;0.17;;
53598;SDS011;39485;45.702;11.364;2023-08-08T01:09:45;0.10;;;0.10;;
53598;SDS011;39485;45.702;11.364;2023-08-08T01:12:17;0.10;;;0.10;;
53598;SDS011;39485;45.702;11.364;2023-08-08T01:14:43;0.10;;;0.10;;
53598;SDS011;39485;45.702;11.364;2023-08-08T01:17:10;0.20;;;0.17;;
53598;SDS011;39485;45.702;11.364;2023-08-08T01:19:37;0.10;;;0.10;;
53598;SDS011;39485;45.702;11.364;2023-08-08T01:22:09;0.20;;;0.20;;
53598;SDS011;39485;45.702;11.364;2023-08-08T01:24:40;0.20;;;0.20;;
53598;SDS011;39485;45.702;11.364;2023-08-08T01:27:08;0.20;;;0.20;;
53598;SDS011;39485;45.702;11.364;2023-08-08T01:29:34;0.10;;;0.10;;
53598;SDS011;39485;45.702;11.364;2023-08-08T01:32:00;0.30;;;0.30;;
53598;SDS011;39485;45.702;11.364;2023-08-08T01:34:25;0.10;;;0.10;;
53598;SDS011;39485;45.702;11.364;2023-08-08T01:39:27;1.02;;;0.20;;
53598;SDS011;39485;45.702;11.364;2023-08-08T01:41:55;0.10;;;0.10;;
53598;SDS011;39485;45.702;11.364;2023-08-08T01:44:23;0.10;;;0.10;;
53598;SDS011;39485;45.702;11.364;2023-08-08T01:46:51;0.35;;;0.35;;
53598;SDS011;39485;45.702;11.364;2023-08-08T01:49:19;0.20;;;0.10;;
53598;SDS011;39485;45.702;11.364;2023-08-08T01:51:46;0.10;;;0.10;;
53598;SDS011;39485;45.702;11.364;2023-08-08T01:54:13;0.10;;;0.10;;
53598;SDS011;39485;45.702;11.364;2023-08-08T01:56:39;0.10;;;0.10;;
53598;SDS011;39485;45.702;11.364;2023-08-08T01:59:04;0.10;;;0.10;;
53598;SDS011;39485;45.702;11.364;2023-08-08T02:01:30;0.10;;;0.10;;
53598;SDS011;39485;45.702;11.364;2023-08-08T02:03:56;0.10;;;0.10;;
53598;SDS011;39485;45.702;11.364;2023-08-08T02:06:21;0.10;;;0.10;;
53598;SDS011;39485;45.702;11.364;2023-08-08T02:08:47;0.10;;;0.10;;
53598;SDS011;39485;45.702;11.364;2023-08-08T02:11:13;0.10;;;0.10;;
53598;SDS011;39485;45.702;11.364;2023-08-08T02:13:38;0.20;;;0.20;;
53598;SDS011;39485;45.702;11.364;2023-08-08T02:16:04;0.22;;;0.22;;
53598;SDS011;39485;45.702;11.364;2023-08-08T02:18:30;0.00;;;0.00;;
53598;SDS011;39485;45.702;11.364;2023-08-08T02:20:55;0.10;;;0.10;;
53598;SDS011;39485;45.702;11.364;2023-08-08T02:23:21;4.85;;;1.45;;
53598;SDS011;39485;45.702;11.364;2023-08-08T02:25:46;0.10;;;0.10;;
53598;SDS011;39485;45.702;11.364;2023-08-08T02:28:12;2.42;;;0.98;;
53598;SDS011;39485;45.702;11.364;2023-08-08T02:30:38;0.10;;;0.10;;
53598;SDS011;39485;45.702;11.364;2023-08-08T02:33:03;0.10;;;0.10;;
53598;SDS011;39485;45.702;11.364;2023-08-08T02:35:29;0.10;;;0.10;;
53598;SDS011;39485;45.702;11.364;2023-08-08T02:37:55;0.10;;;0.10;;
53598;SDS011;39485;45.702;11.364;2023-08-08T02:40:21;0.30;;;0.30;;
53598;SDS011;39485;45.702;11.364;2023-08-08T02:42:48;0.22;;;0.22;;
53598;SDS011;39485;45.702;11.364;2023-08-08T02:45:15;0.10;;;0.10;;
53598;SDS011;39485;45.702;11.364;2023-08-08T02:47:40;0.10;;;0.10;;
53598;SDS011;39485;45.702;11.364;2023-08-08T02:50:06;0.15;;;0.15;;
53598;SDS011;39485;45.702;11.364;2023-08-08T02:52:32;0.93;;;0.30;;
53598;SDS011;39485;45.702;11.364;2023-08-08T02:54:58;0.10;;;0.10;;
53598;SDS011;39485;45.702;11.364;2023-08-08T02:57:25;0.20;;;0.20;;
53598;SDS011;39485;45.702;11.364;2023-08-08T02:59:50;0.10;;;0.10;;
53598;SDS011;39485;45.702;11.364;2023-08-08T03:02:16;0.10;;;0.10;;
53598;SDS011;39485;45.702;11.364;2023-08-08T03:04:42;0.10;;;0.10;;
53598;SDS011;39485;45.702;11.364;2023-08-08T03:07:07;0.10;;;0.10;;
53598;SDS011;39485;45.702;11.364;2023-08-08T03:09:33;0.10;;;0.10;;
53598;SDS011;39485;45.702;11.364;2023-08-08T03:11:58;0.20;;;0.20;;
53598;SDS011;39485;45.702;11.364;2023-08-08T03:14:24;0.10;;;0.10;;
53598;SDS011;39485;45.702;11.364;2023-08-08T03:16:50;0.10;;;0.10;;
53598;SDS011;39485;45.702;11.364;2023-08-08T03:19:15;0.10;;;0.10;;
53598;SDS011;39485;45.702;11.364;2023-08-08T03:21:41;0.10;;;0.10;;
53598;SDS011;39485;45.702;11.364;2023-08-08T03:24:07;0.20;;;0.20;;
53598;SDS011;39485;45.702;11.364;2023-08-08T03:26:32;0.10;;;0.10;;
53598;SDS011;39485;45.702;11.364;2023-08-08T03:28:58;0.10;;;0.10;;
53598;SDS011;39485;45.702;11.364;2023-08-08T03:31:24;0.15;;;0.15;;
53598;SDS011;39485;45.702;11.364;2023-08-08T03:33:51;0.10;;;0.10;;
53598;SDS011;39485;45.702;11.364;2023-08-08T03:36:16;0.10;;;0.10;;
53598;SDS011;39485;45.702;11.364;2023-08-08T03:38:42;0.75;;;0.20;;
53598;SDS011;39485;45.702;11.364;2023-08-08T03:41:10;0.10;;;0.10;;
53598;SDS011;39485;45.702;11.364;2023-08-08T03:43:37;0.10;;;0.10;;
53598;SDS011;39485;45.702;11.364;2023-08-08T03:46:03;0.10;;;0.10;;
53598;SDS011;39485;45.702;11.364;2023-08-08T03:48:29;0.10;;;0.10;;
53598;SDS011;39485;45.702;11.364;2023-08-08T03:50:54;0.10;;;0.10;;
53598;SDS011;39485;45.702;11.364;2023-08-08T03:53:20;0.10;;;0.10;;
53598;SDS011;39485;45.702;11.364;2023-08-08T03:55:46;0.10;;;0.10;;
53598;SDS011;39485;45.702;11.364;2023-08-08T03:58:11;0.10;;;0.10;;
53598;SDS011;39485;45.702;11.364;2023-08-08T04:00:37;0.10;;;0.10;;
53598;SDS011;39485;45.702;11.364;2023-08-08T04:03:05;0.28;;;0.28;;
53598;SDS011;39485;45.702;11.364;2023-08-08T04:05:31;0.10;;;0.10;;
53598;SDS011;39485;45.702;11.364;2023-08-08T04:07:56;0.10;;;0.10;;
53598;SDS011;39485;45.702;11.364;2023-08-08T04:10:22;0.10;;;0.10;;
53598;SDS011;39485;45.702;11.364;2023-08-08T04:12:47;0.08;;;0.08;;
53598;SDS011;39485;45.702;11.364;2023-08-08T04:15:13;0.00;;;0.00;;
53598;SDS011;39485;45.702;11.364;2023-08-08T04:17:39;1.17;;;0.63;;
53598;SDS011;39485;45.702;11.364;2023-08-08T04:20:05;0.10;;;0.10;;
53598;SDS011;39485;45.702;11.364;2023-08-08T04:22:31;0.10;;;0.10;;
53598;SDS011;39485;45.702;11.364;2023-08-08T04:24:57;0.10;;;0.10;;
53598;SDS011;39485;45.702;11.364;2023-08-08T04:27:23;0.10;;;0.10;;
53598;SDS011;39485;45.702;11.364;2023-08-08T04:29:48;0.10;;;0.10;;
53598;SDS011;39485;45.702;11.364;2023-08-08T04:32:14;0.10;;;0.10;;
53598;SDS011;39485;45.702;11.364;2023-08-08T04:34:40;0.17;;;0.17;;
53598;SDS011;39485;45.702;11.364;2023-08-08T04:37:06;0.40;;;0.40;;
53598;SDS011;39485;45.702;11.364;2023-08-08T04:39:31;4.60;;;0.63;;
53598;SDS011;39485;45.702;11.364;2023-08-08T04:41:57;0.70;;;0.70;;
53598;SDS011;39485;45.702;11.364;2023-08-08T04:44:23;0.80;;;0.80;;
53598;SDS011;39485;45.702;11.364;2023-08-08T04:46:48;2.42;;;1.98;;
53598;SDS011;39485;45.702;11.364;2023-08-08T04:49:14;4.13;;;2.35;;
53598;SDS011;39485;45.702;11.364;2023-08-08T04:51:40;1.27;;;1.17;;
53598;SDS011;39485;45.702;11.364;2023-08-08T04:54:05;1.42;;;1.17;;
53598;SDS011;39485;45.702;11.364;2023-08-08T04:56:31;1.08;;;0.95;;
53598;SDS011;39485;45.702;11.364;2023-08-08T04:58:57;1.27;;;1.25;;
53598;SDS011;39485;45.702;11.364;2023-08-08T05:01:22;1.08;;;0.98;;
53598;SDS011;39485;45.702;11.364;2023-08-08T05:03:48;0.50;;;0.50;;
53598;SDS011;39485;45.702;11.364;2023-08-08T05:06:14;0.82;;;0.82;;
53598;SDS011;39485;45.702;11.364;2023-08-08T05:08:40;0.20;;;0.20;;
53598;SDS011;39485;45.702;11.364;2023-08-08T05:11:06;0.30;;;0.30;;
53598;SDS011;39485;45.702;11.364;2023-08-08T05:13:31;0.82;;;0.50;;
53598;SDS011;39485;45.702;11.364;2023-08-08T05:15:57;1.45;;;0.50;;
53598;SDS011;39485;45.702;11.364;2023-08-08T05:18:22;0.63;;;0.63;;
53598;SDS011;39485;45.702;11.364;2023-08-08T05:20:48;0.38;;;0.30;;
53598;SDS011;39485;45.702;11.364;2023-08-08T05:23:14;0.10;;;0.10;;
53598;SDS011;39485;45.702;11.364;2023-08-08T05:25:40;1.80;;;0.43;;
53598;SDS011;39485;45.702;11.364;2023-08-08T05:28:05;0.20;;;0.20;;
53598;SDS011;39485;45.702;11.364;2023-08-08T05:30:31;0.10;;;0.10;;
53598;SDS011;39485;45.702;11.364;2023-08-08T05:32:57;0.30;;;0.30;;
53598;SDS011;39485;45.702;11.364;2023-08-08T05:35:23;1.80;;;0.40;;
53598;SDS011;39485;45.702;11.364;2023-08-08T05:37:48;0.20;;;0.20;;
53598;SDS011;39485;45.702;11.364;2023-08-08T05:40:14;0.10;;;0.10;;
53598;SDS011;39485;45.702;11.364;2023-08-08T05:42:40;1.13;;;0.15;;
53598;SDS011;39485;45.702;11.364;2023-08-08T05:45:06;0.45;;;0.45;;
53598;SDS011;39485;45.702;11.364;2023-08-08T05:47:32;0.15;;;0.15;;
53598;SDS011;39485;45.702;11.364;2023-08-08T05:49:58;0.10;;;0.10;;
53598;SDS011;39485;45.702;11.364;2023-08-08T05:52:25;0.65;;;0.30;;
53598;SDS011;39485;45.702;11.364;2023-08-08T05:54:50;0.00;;;0.00;;
53598;SDS011;39485;45.702;11.364;2023-08-08T05:57:16;0.10;;;0.10;;
53598;SDS011;39485;45.702;11.364;2023-08-08T05:59:42;0.00;;;0.00;;
53598;SDS011;39485;45.702;11.364;2023-08-08T06:02:09;0.00;;;0.00;;
53598;SDS011;39485;45.702;11.364;2023-08-08T06:04:35;0.00;;;0.00;;
53598;SDS011;39485;45.702;11.364;2023-08-08T06:07:01;0.10;;;0.10;;
53598;SDS011;39485;45.702;11.364;2023-08-08T06:09:27;0.10;;;0.10;;
53598;SDS011;39485;45.702;11.364;2023-08-08T06:11:53;0.00;;;0.00;;
53598;SDS011;39485;45.702;11.364;2023-08-08T06:14:18;0.20;;;0.20;;
53598;SDS011;39485;45.702;11.364;2023-08-08T06:16:44;0.70;;;0.20;;
53598;SDS011;39485;45.702;11.364;2023-08-08T06:19:11;0.32;;;0.25;;
53598;SDS011;39485;45.702;11.364;2023-08-08T06:21:38;0.10;;;0.10;;
53598;SDS011;39485;45.702;11.364;2023-08-08T06:24:04;0.00;;;0.00;;
53598;SDS011;39485;45.702;11.364;2023-08-08T06:26:30;0.00;;;0.00;;
53598;SDS011;39485;45.702;11.364;2023-08-08T06:28:56;0.00;;;0.00;;
53598;SDS011;39485;45.702;11.364;2023-08-08T06:31:21;0.00;;;0.00;;
53598;SDS011;39485;45.702;11.364;2023-08-08T06:33:47;0.00;;;0.00;;
53598;SDS011;39485;45.702;11.364;2023-08-08T06:36:13;0.00;;;0.00;;
53598;SDS011;39485;45.702;11.364;2023-08-08T06:38:39;0.00;;;0.00;;
53598;SDS011;39485;45.702;11.364;2023-08-08T06:41:04;0.35;;;0.22;;
53598;SDS011;39485;45.702;11.364;2023-08-08T06:43:30;0.00;;;0.00;;
53598;SDS011;39485;45.702;11.364;2023-08-08T06:45:56;0.00;;;0.00;;
53598;SDS011;39485;45.702;11.364;2023-08-08T06:48:22;0.20;;;0.20;;
53598;SDS011;39485;45.702;11.364;2023-08-08T06:50:48;0.00;;;0.00;;
53598;SDS011;39485;45.702;11.364;2023-08-08T06:53:14;0.00;;;0.00;;
53598;SDS011;39485;45.702;11.364;2023-08-08T06:55:40;0.15;;;0.15;;
53598;SDS011;39485;45.702;11.364;2023-08-08T06:58:06;0.10;;;0.10;;
53598;SDS011;39485;45.702;11.364;2023-08-08T07:00:32;0.00;;;0.00;;
53598;SDS011;39485;45.702;11.364;2023-08-08T07:02:57;0.00;;;0.00;;
53598;SDS011;39485;45.702;11.364;2023-08-08T07:05:23;0.00;;;0.00;;
53598;SDS011;39485;45.702;11.364;2023-08-08T07:07:49;0.00;;;0.00;;
53598;SDS011;39485;45.702;11.364;2023-08-08T07:10:16;0.00;;;0.00;;
53598;SDS011;39485;45.702;11.364;2023-08-08T07:12:42;0.10;;;0.10;;
53598;SDS011;39485;45.702;11.364;2023-08-08T07:15:08;0.00;;;0.00;;
53598;SDS011;39485;45.702;11.364;2023-08-08T07:17:34;0.00;;;0.00;;
53598;SDS011;39485;45.702;11.364;2023-08-08T07:20:00;0.00;;;0.00;;
53598;SDS011;39485;45.702;11.364;2023-08-08T07:22:27;0.00;;;0.00;;
53598;SDS011;39485;45.702;11.364;2023-08-08T07:24:53;0.00;;;0.00;;
53598;SDS011;39485;45.702;11.364;2023-08-08T07:27:18;0.57;;;0.30;;
53598;SDS011;39485;45.702;11.364;2023-08-08T07:29:44;0.00;;;0.00;;
53598;SDS011;39485;45.702;11.364;2023-08-08T07:32:10;0.00;;;0.00;;
53598;SDS011;39485;45.702;11.364;2023-08-08T07:34:36;0.00;;;0.00;;
53598;SDS011;39485;45.702;11.364;2023-08-08T07:37:02;0.20;;;0.20;;
53598;SDS011;39485;45.702;11.364;2023-08-08T07:39:28;0.00;;;0.00;;
53598;SDS011;39485;45.702;11.364;2023-08-08T07:41:54;0.00;;;0.00;;
53598;SDS011;39485;45.702;11.364;2023-08-08T07:44:19;0.00;;;0.00;;
53598;SDS011;39485;45.702;11.364;2023-08-08T07:46:45;0.00;;;0.00;;
53598;SDS011;39485;45.702;11.364;2023-08-08T07:49:11;0.00;;;0.00;;
53598;SDS011;39485;45.702;11.364;2023-08-08T07:51:37;0.10;;;0.10;;
53598;SDS011;39485;45.702;11.364;2023-08-08T07:54:02;0.00;;;0.00;;
53598;SDS011;39485;45.702;11.364;2023-08-08T07:56:30;0.00;;;0.00;;
53598;SDS011;39485;45.702;11.364;2023-08-08T07:58:56;0.10;;;0.10;;
53598;SDS011;39485;45.702;11.364;2023-08-08T08:01:21;0.00;;;0.00;;
53598;SDS011;39485;45.702;11.364;2023-08-08T08:03:48;0.00;;;0.00;;
53598;SDS011;39485;45.702;11.364;2023-08-08T08:06:13;0.00;;;0.00;;
53598;SDS011;39485;45.702;11.364;2023-08-08T08:08:39;0.00;;;0.00;;
53598;SDS011;39485;45.702;11.364;2023-08-08T08:11:05;0.00;;;0.00;;
53598;SDS011;39485;45.702;11.364;2023-08-08T08:13:30;0.00;;;0.00;;
53598;SDS011;39485;45.702;11.364;2023-08-08T08:15:56;0.00;;;0.00;;
53598;SDS011;39485;45.702;11.364;2023-08-08T08:18:23;0.00;;;0.00;;
53598;SDS011;39485;45.702;11.364;2023-08-08T08:20:48;0.00;;;0.00;;
53598;SDS011;39485;45.702;11.364;2023-08-08T08:23:14;0.00;;;0.00;;
53598;SDS011;39485;45.702;11.364;2023-08-08T08:25:40;0.00;;;0.00;;
53598;SDS011;39485;45.702;11.364;2023-08-08T08:28:06;0.00;;;0.00;;
53598;SDS011;39485;45.702;11.364;2023-08-08T08:30:32;0.00;;;0.00;;
53598;SDS011;39485;45.702;11.364;2023-08-08T08:32:58;0.20;;;0.20;;
53598;SDS011;39485;45.702;11.364;2023-08-08T08:35:25;0.00;;;0.00;;
53598;SDS011;39485;45.702;11.364;2023-08-08T08:37:51;0.00;;;0.00;;
53598;SDS011;39485;45.702;11.364;2023-08-08T08:40:17;0.00;;;0.00;;
53598;SDS011;39485;45.702;11.364;2023-08-08T08:42:42;0.00;;;0.00;;
53598;SDS011;39485;45.702;11.364;2023-08-08T08:45:10;0.00;;;0.00;;
53598;SDS011;39485;45.702;11.364;2023-08-08T08:47:37;0.00;;;0.00;;
53598;SDS011;39485;45.702;11.364;2023-08-08T08:50:07;0.00;;;0.00;;
53598;SDS011;39485;45.702;11.364;2023-08-08T08:52:33;0.00;;;0.00;;
53598;SDS011;39485;45.702;11.364;2023-08-08T08:54:59;0.00;;;0.00;;
53598;SDS011;39485;45.702;11.364;2023-08-08T08:57:25;0.00;;;0.00;;
53598;SDS011;39485;45.702;11.364;2023-08-08T08:59:51;0.10;;;0.10;;
53598;SDS011;39485;45.702;11.364;2023-08-08T09:02:20;0.00;;;0.00;;
53598;SDS011;39485;45.702;11.364;2023-08-08T09:04:46;0.00;;;0.00;;
53598;SDS011;39485;45.702;11.364;2023-08-08T09:07:12;0.00;;;0.00;;
53598;SDS011;39485;45.702;11.364;2023-08-08T09:09:41;0.13;;;0.00;;
53598;SDS011;39485;45.702;11.364;2023-08-08T09:12:08;0.00;;;0.00;;
53598;SDS011;39485;45.702;11.364;2023-08-08T09:14:34;0.13;;;0.13;;
53598;SDS011;39485;45.702;11.364;2023-08-08T09:17:04;0.00;;;0.00;;
53598;SDS011;39485;45.702;11.364;2023-08-08T09:19:38;0.00;;;0.00;;
53598;SDS011;39485;45.702;11.364;2023-08-08T09:22:08;0.00;;;0.00;;
53598;SDS011;39485;45.702;11.364;2023-08-08T09:24:37;0.00;;;0.00;;
53598;SDS011;39485;45.702;11.364;2023-08-08T09:27:05;0.17;;;0.17;;
53598;SDS011;39485;45.702;11.364;2023-08-08T09:29:35;0.00;;;0.00;;
53598;SDS011;39485;45.702;11.364;2023-08-08T09:32:04;0.00;;;0.00;;
53598;SDS011;39485;45.702;11.364;2023-08-08T09:34:31;0.00;;;0.00;;
53598;SDS011;39485;45.702;11.364;2023-08-08T09:36:57;0.00;;;0.00;;
53598;SDS011;39485;45.702;11.364;2023-08-08T09:39:23;0.00;;;0.00;;
53598;SDS011;39485;45.702;11.364;2023-08-08T09:41:49;0.10;;;0.10;;
53598;SDS011;39485;45.702;11.364;2023-08-08T09:44:15;0.00;;;0.00;;
53598;SDS011;39485;45.702;11.364;2023-08-08T09:46:42;0.00;;;0.00;;
53598;SDS011;39485;45.702;11.364;2023-08-08T09:49:08;0.00;;;0.00;;
53598;SDS011;39485;45.702;11.364;2023-08-08T09:51:36;0.00;;;0.00;;
53598;SDS011;39485;45.702;11.364;2023-08-08T09:54:02;0.00;;;0.00;;
53598;SDS011;39485;45.702;11.364;2023-08-08T09:56:31;0.00;;;0.00;;
53598;SDS011;39485;45.702;11.364;2023-08-08T09:58:59;0.00;;;0.00;;
53598;SDS011;39485;45.702;11.364;2023-08-08T10:01:26;0.00;;;0.00;;
53598;SDS011;39485;45.702;11.364;2023-08-08T10:03:52;0.00;;;0.00;;
53598;SDS011;39485;45.702;11.364;2023-08-08T10:06:18;0.00;;;0.00;;
53598;SDS011;39485;45.702;11.364;2023-08-08T10:08:44;0.00;;;0.00;;
53598;SDS011;39485;45.702;11.364;2023-08-08T10:11:11;0.20;;;0.15;;
53598;SDS011;39485;45.702;11.364;2023-08-08T10:13:46;0.00;;;0.00;;
53598;SDS011;39485;45.702;11.364;2023-08-08T10:16:15;0.00;;;0.00;;
53598;SDS011;39485;45.702;11.364;2023-08-08T10:18:42;0.80;;;0.00;;
53598;SDS011;39485;45.702;11.364;2023-08-08T10:21:08;0.00;;;0.00;;
53598;SDS011;39485;45.702;11.364;2023-08-08T10:23:38;0.00;;;0.00;;
53598;SDS011;39485;45.702;11.364;2023-08-08T10:26:05;0.00;;;0.00;;
53598;SDS011;39485;45.702;11.364;2023-08-08T10:28:51;0.00;;;0.00;;
53598;SDS011;39485;45.702;11.364;2023-08-08T10:31:19;0.00;;;0.00;;
53598;SDS011;39485;45.702;11.364;2023-08-08T10:33:46;0.00;;;0.00;;
53598;SDS011;39485;45.702;11.364;2023-08-08T10:36:12;0.10;;;0.00;;
53598;SDS011;39485;45.702;11.364;2023-08-08T10:38:49;0.00;;;0.00;;
53598;SDS011;39485;45.702;11.364;2023-08-08T10:41:20;0.00;;;0.00;;
53598;SDS011;39485;45.702;11.364;2023-08-08T10:43:54;0.00;;;0.00;;
53598;SDS011;39485;45.702;11.364;2023-08-08T10:46:26;0.00;;;0.00;;
53598;SDS011;39485;45.702;11.364;2023-08-08T10:48:53;0.00;;;0.00;;
53598;SDS011;39485;45.702;11.364;2023-08-08T10:51:21;0.00;;;0.00;;
53598;SDS011;39485;45.702;11.364;2023-08-08T10:53:50;0.00;;;0.00;;
53598;SDS011;39485;45.702;11.364;2023-08-08T10:56:17;0.08;;;0.08;;
53598;SDS011;39485;45.702;11.364;2023-08-08T10:58:47;0.20;;;0.20;;
53598;SDS011;39485;45.702;11.364;2023-08-08T11:01:14;0.13;;;0.13;;
53598;SDS011;39485;45.702;11.364;2023-08-08T11:03:42;0.00;;;0.00;;
53598;SDS011;39485;45.702;11.364;2023-08-08T11:06:09;0.45;;;0.22;;
53598;SDS011;39485;45.702;11.364;2023-08-08T11:08:36;0.00;;;0.00;;
53598;SDS011;39485;45.702;11.364;2023-08-08T11:11:04;0.00;;;0.00;;
53598;SDS011;39485;45.702;11.364;2023-08-08T11:13:31;0.00;;;0.00;;
53598;SDS011;39485;45.702;11.364;2023-08-08T11:15:57;0.28;;;0.15;;
53598;SDS011;39485;45.702;11.364;2023-08-08T11:18:23;0.00;;;0.00;;
53598;SDS011;39485;45.702;11.364;2023-08-08T11:20:50;0.00;;;0.00;;
53598;SDS011;39485;45.702;11.364;2023-08-08T11:23:16;0.00;;;0.00;;
53598;SDS011;39485;45.702;11.364;2023-08-08T11:25:43;0.00;;;0.00;;
53598;SDS011;39485;45.702;11.364;2023-08-08T11:28:10;0.00;;;0.00;;
53598;SDS011;39485;45.702;11.364;2023-08-08T11:30:37;0.00;;;0.00;;
53598;SDS011;39485;45.702;11.364;2023-08-08T11:33:05;0.35;;;0.10;;
53598;SDS011;39485;45.702;11.364;2023-08-08T11:35:32;0.75;;;0.10;;
53598;SDS011;39485;45.702;11.364;2023-08-08T11:37:59;0.00;;;0.00;;
53598;SDS011;39485;45.702;11.364;2023-08-08T11:40:26;0.00;;;0.00;;
53598;SDS011;39485;45.702;11.364;2023-08-08T11:42:53;0.00;;;0.00;;
53598;SDS011;39485;45.702;11.364;2023-08-08T11:45:20;0.00;;;0.00;;
53598;SDS011;39485;45.702;11.364;2023-08-08T11:47:55;0.00;;;0.00;;
53598;SDS011;39485;45.702;11.364;2023-08-08T11:50:22;0.00;;;0.00;;
53598;SDS011;39485;45.702;11.364;2023-08-08T11:52:50;0.00;;;0.00;;
53598;SDS011;39485;45.702;11.364;2023-08-08T11:55:18;0.00;;;0.00;;
53598;SDS011;39485;45.702;11.364;2023-08-08T11:57:47;0.00;;;0.00;;
53598;SDS011;39485;45.702;11.364;2023-08-08T12:00:14;0.65;;;0.47;;
53598;SDS011;39485;45.702;11.364;2023-08-08T12:02:41;0.00;;;0.00;;
53598;SDS011;39485;45.702;11.364;2023-08-08T12:05:12;0.28;;;0.10;;
53598;SDS011;39485;45.702;11.364;2023-08-08T12:07:42;0.00;;;0.00;;
53598;SDS011;39485;45.702;11.364;2023-08-08T12:10:14;0.00;;;0.00;;
53598;SDS011;39485;45.702;11.364;2023-08-08T12:12:43;0.00;;;0.00;;
53598;SDS011;39485;45.702;11.364;2023-08-08T12:15:09;0.00;;;0.00;;
53598;SDS011;39485;45.702;11.364;2023-08-08T12:17:36;0.00;;;0.00;;
53598;SDS011;39485;45.702;11.364;2023-08-08T12:20:03;0.00;;;0.00;;
53598;SDS011;39485;45.702;11.364;2023-08-08T12:22:33;0.00;;;0.00;;
53598;SDS011;39485;45.702;11.364;2023-08-08T12:24:59;0.00;;;0.00;;
53598;SDS011;39485;45.702;11.364;2023-08-08T12:27:25;0.00;;;0.00;;
53598;SDS011;39485;45.702;11.364;2023-08-08T12:29:51;0.00;;;0.00;;
53598;SDS011;39485;45.702;11.364;2023-08-08T12:32:20;0.00;;;0.00;;
53598;SDS011;39485;45.702;11.364;2023-08-08T12:34:49;0.00;;;0.00;;
53598;SDS011;39485;45.702;11.364;2023-08-08T12:37:16;0.00;;;0.00;;
53598;SDS011;39485;45.702;11.364;2023-08-08T12:39:41;0.20;;;0.20;;
53598;SDS011;39485;45.702;11.364;2023-08-08T12:42:07;0.00;;;0.00;;
53598;SDS011;39485;45.702;11.364;2023-08-08T12:44:33;0.00;;;0.00;;
53598;SDS011;39485;45.702;11.364;2023-08-08T12:46:58;0.00;;;0.00;;
53598;SDS011;39485;45.702;11.364;2023-08-08T12:49:24;0.00;;;0.00;;
53598;SDS011;39485;45.702;11.364;2023-08-08T12:51:50;0.00;;;0.00;;
53598;SDS011;39485;45.702;11.364;2023-08-08T12:54:16;0.85;;;0.10;;
53598;SDS011;39485;45.702;11.364;2023-08-08T12:56:42;0.00;;;0.00;;
53598;SDS011;39485;45.702;11.364;2023-08-08T12:59:08;0.00;;;0.00;;
53598;SDS011;39485;45.702;11.364;2023-08-08T13:01:34;0.00;;;0.00;;
53598;SDS011;39485;45.702;11.364;2023-08-08T13:04:00;0.00;;;0.00;;
53598;SDS011;39485;45.702;11.364;2023-08-08T13:06:26;0.00;;;0.00;;
53598;SDS011;39485;45.702;11.364;2023-08-08T13:08:52;0.00;;;0.00;;
53598;SDS011;39485;45.702;11.364;2023-08-08T13:11:17;0.00;;;0.00;;
53598;SDS011;39485;45.702;11.364;2023-08-08T13:13:43;0.00;;;0.00;;
53598;SDS011;39485;45.702;11.364;2023-08-08T13:16:09;0.00;;;0.00;;
53598;SDS011;39485;45.702;11.364;2023-08-08T13:18:35;0.00;;;0.00;;
53598;SDS011;39485;45.702;11.364;2023-08-08T13:21:01;0.00;;;0.00;;
53598;SDS011;39485;45.702;11.364;2023-08-08T13:23:27;0.00;;;0.00;;
53598;SDS011;39485;45.702;11.364;2023-08-08T13:25:53;0.00;;;0.00;;
53598;SDS011;39485;45.702;11.364;2023-08-08T13:28:19;0.00;;;0.00;;
53598;SDS011;39485;45.702;11.364;2023-08-08T13:30:45;0.10;;;0.10;;
53598;SDS011;39485;45.702;11.364;2023-08-08T13:33:10;0.00;;;0.00;;
53598;SDS011;39485;45.702;11.364;2023-08-08T13:35:36;0.00;;;0.00;;
53598;SDS011;39485;45.702;11.364;2023-08-08T13:38:02;0.00;;;0.00;;
53598;SDS011;39485;45.702;11.364;2023-08-08T13:40:28;0.00;;;0.00;;
53598;SDS011;39485;45.702;11.364;2023-08-08T13:42:53;1.23;;;0.17;;
53598;SDS011;39485;45.702;11.364;2023-08-08T13:45:19;0.00;;;0.00;;
53598;SDS011;39485;45.702;11.364;2023-08-08T13:47:46;0.00;;;0.00;;
53598;SDS011;39485;45.702;11.364;2023-08-08T13:50:13;0.00;;;0.00;;
53598;SDS011;39485;45.702;11.364;2023-08-08T13:52:39;0.00;;;0.00;;
53598;SDS011;39485;45.702;11.364;2023-08-08T13:55:06;0.00;;;0.00;;
53598;SDS011;39485;45.702;11.364;2023-08-08T13:57:32;0.00;;;0.00;;
53598;SDS011;39485;45.702;11.364;2023-08-08T13:59:58;1.23;;;0.10;;
53598;SDS011;39485;45.702;11.364;2023-08-08T14:02:24;0.00;;;0.00;;
53598;SDS011;39485;45.702;11.364;2023-08-08T14:04:49;0.00;;;0.00;;
53598;SDS011;39485;45.702;11.364;2023-08-08T14:07:15;0.00;;;0.00;;
53598;SDS011;39485;45.702;11.364;2023-08-08T14:09:41;0.00;;;0.00;;
53598;SDS011;39485;45.702;11.364;2023-08-08T14:12:07;0.10;;;0.10;;
53598;SDS011;39485;45.702;11.364;2023-08-08T14:14:33;0.00;;;0.00;;
53598;SDS011;39485;45.702;11.364;2023-08-08T14:16:58;0.00;;;0.00;;
53598;SDS011;39485;45.702;11.364;2023-08-08T14:19:24;0.00;;;0.00;;
53598;SDS011;39485;45.702;11.364;2023-08-08T14:21:50;0.00;;;0.00;;
53598;SDS011;39485;45.702;11.364;2023-08-08T14:24:15;0.00;;;0.00;;
53598;SDS011;39485;45.702;11.364;2023-08-08T14:26:41;0.00;;;0.00;;
53598;SDS011;39485;45.702;11.364;2023-08-08T14:29:07;0.00;;;0.00;;
53598;SDS011;39485;45.702;11.364;2023-08-08T14:31:32;0.00;;;0.00;;